sensor_id;sensor_type;location;lat;lon;timestamp;pressure;altitude;pressure_sealevel;temperature;humidity
39487;BME280;25173;50.430;18.926;2024-02-21T00:01:03;98870.69;;;9.45;73.39
39487;BME280;25173;50.430;18.926;2024-02-21T00:04:04;98876.13;;;9.45;73.31
39487;BME280;25173;50.430;18.926;2024-02-21T00:07:06;98869.84;;;9.45;73.01
39487;BME280;25173;50.430;18.926;2024-02-21T00:10:07;98870.91;;;9.44;72.99
39487;BME280;25173;50.430;18.926;2024-02-21T00:13:08;98869.63;;;9.46;73.03
39487;BME280;25173;50.430;18.926;2024-02-21T00:16:08;98863.59;;;9.44;72.86
39487;BME280;25173;50.430;18.926;2024-02-21T00:19:11;98867.47;;;9.48;72.86
39487;BME280;25173;50.430;18.926;2024-02-21T00:22:11;98865.00;;;9.47;72.80
39487;BME280;25173;50.430;18.926;2024-02-21T00:25:12;98868.03;;;9.50;72.88
39487;BME280;25173;50.430;18.926;2024-02-21T00:28:13;98863.75;;;9.54;72.88
39487;BME280;25173;50.430;18.926;2024-02-21T00:31:13;98865.66;;;9.54;72.79
39487;BME280;25173;50.430;18.926;2024-02-21T00:34:14;98854.44;;;9.50;72.67
39487;BME280;25173;50.430;18.926;2024-02-21T00:37:15;98850.63;;;9.51;72.84
39487;BME280;25173;50.430;18.926;2024-02-21T00:40:15;98841.66;;;9.51;72.66
39487;BME280;25173;50.430;18.926;2024-02-21T00:43:20;98839.19;;;9.49;72.69
39487;BME280;25173;50.430;18.926;2024-02-21T00:46:24;98843.50;;;9.45;72.59
39487;BME280;25173;50.430;18.926;2024-02-21T00:49:24;98838.28;;;9.44;72.58
39487;BME280;25173;50.430;18.926;2024-02-21T00:52:25;98833.69;;;9.44;72.71
39487;BME280;25173;50.430;18.926;2024-02-21T00:55:26;98834.25;;;9.46;72.41
39487;BME280;25173;50.430;18.926;2024-02-21T00:58:26;98837.47;;;9.43;71.97
39487;BME280;25173;50.430;18.926;2024-02-21T01:01:27;98829.00;;;9.40;72.29
39487;BME280;25173;50.430;18.926;2024-02-21T01:04:28;98837.41;;;9.38;72.24
39487;BME280;25173;50.430;18.926;2024-02-21T01:07:28;98835.28;;;9.40;72.24
39487;BME280;25173;50.430;18.926;2024-02-21T01:10:29;98830.31;;;9.37;72.20
39487;BME280;25173;50.430;18.926;2024-02-21T01:13:30;98837.91;;;9.35;72.06
39487;BME280;25173;50.430;18.926;2024-02-21T01:16:31;98832.97;;;9.32;72.08
39487;BME280;25173;50.430;18.926;2024-02-21T01:19:31;98836.41;;;9.27;72.29
39487;BME280;25173;50.430;18.926;2024-02-21T01:22:32;98828.09;;;9.34;72.25
39487;BME280;25173;50.430;18.926;2024-02-21T01:25:33;98823.81;;;9.38;72.16
39487;BME280;25173;50.430;18.926;2024-02-21T01:28:34;98815.13;;;9.41;72.00
39487;BME280;25173;50.430;18.926;2024-02-21T01:31:36;98806.44;;;9.39;71.98
39487;BME280;25173;50.430;18.926;2024-02-21T01:34:36;98811.53;;;9.35;71.68
39487;BME280;25173;50.430;18.926;2024-02-21T01:37:37;98802.84;;;9.33;71.81
39487;BME280;25173;50.430;18.926;2024-02-21T01:40:38;98805.28;;;9.35;71.82
39487;BME280;25173;50.430;18.926;2024-02-21T01:43:39;98808.81;;;9.35;71.71
39487;BME280;25173;50.430;18.926;2024-02-21T01:46:39;98795.75;;;9.32;71.56
39487;BME280;25173;50.430;18.926;2024-02-21T01:49:41;98795.41;;;9.29;71.56
39487;BME280;25173;50.430;18.926;2024-02-21T01:52:43;98789.91;;;9.24;71.43
39487;BME280;25173;50.430;18.926;2024-02-21T01:55:47;98781.75;;;9.24;71.65
39487;BME280;25173;50.430;18.926;2024-02-21T01:58:48;98782.25;;;9.21;71.26
39487;BME280;25173;50.430;18.926;2024-02-21T02:01:50;98784.66;;;9.17;71.44
39487;BME280;25173;50.430;18.926;2024-02-21T02:04:52;98782.75;;;9.18;71.48
39487;BME280;25173;50.430;18.926;2024-02-21T02:07:53;98784.13;;;9.20;71.63
39487;BME280;25173;50.430;18.926;2024-02-21T02:10:53;98777.38;;;9.23;71.52
39487;BME280;25173;50.430;18.926;2024-02-21T02:13:54;98774.66;;;9.23;71.50
39487;BME280;25173;50.430;18.926;2024-02-21T02:16:55;98769.22;;;9.23;71.37
39487;BME280;25173;50.430;18.926;2024-02-21T02:19:55;98756.72;;;9.22;71.44
39487;BME280;25173;50.430;18.926;2024-02-21T02:22:58;98764.28;;;9.20;71.46
39487;BME280;25173;50.430;18.926;2024-02-21T02:25:59;98765.22;;;9.09;71.36
39487;BME280;25173;50.430;18.926;2024-02-21T02:29:02;98764.88;;;9.05;71.58
39487;BME280;25173;50.430;18.926;2024-02-21T02:32:03;98772.78;;;9.07;71.67
39487;BME280;25173;50.430;18.926;2024-02-21T02:35:04;98765.47;;;9.07;71.55
39487;BME280;25173;50.430;18.926;2024-02-21T02:38:05;98758.16;;;9.08;71.64
39487;BME280;25173;50.430;18.926;2024-02-21T02:41:05;98758.22;;;9.13;71.73
39487;BME280;25173;50.430;18.926;2024-02-21T02:44:06;98753.94;;;9.17;71.55
39487;BME280;25173;50.430;18.926;2024-02-21T02:47:08;98756.22;;;9.25;71.68
39487;BME280;25173;50.430;18.926;2024-02-21T02:50:09;98752.50;;;9.31;71.61
39487;BME280;25173;50.430;18.926;2024-02-21T02:53:10;98750.41;;;9.38;71.45
39487;BME280;25173;50.430;18.926;2024-02-21T02:56:16;98751.88;;;9.46;71.50
39487;BME280;25173;50.430;18.926;2024-02-21T02:59:17;98752.50;;;9.53;71.00
39487;BME280;25173;50.430;18.926;2024-02-21T03:02:18;98746.88;;;9.59;70.68
39487;BME280;25173;50.430;18.926;2024-02-21T03:05:19;98755.03;;;9.59;70.54
39487;BME280;25173;50.430;18.926;2024-02-21T03:08:20;98756.09;;;9.58;70.66
39487;BME280;25173;50.430;18.926;2024-02-21T03:11:21;98762.63;;;9.57;70.87
39487;BME280;25173;50.430;18.926;2024-02-21T03:14:29;98766.28;;;9.46;71.17
39487;BME280;25173;50.430;18.926;2024-02-21T03:17:30;98760.78;;;9.41;71.51
39487;BME280;25173;50.430;18.926;2024-02-21T03:20:32;98756.16;;;9.42;71.55
39487;BME280;25173;50.430;18.926;2024-02-21T03:23:32;98755.91;;;9.43;71.76
39487;BME280;25173;50.430;18.926;2024-02-21T03:26:33;98752.56;;;9.36;71.55
39487;BME280;25173;50.430;18.926;2024-02-21T03:29:34;98746.00;;;9.32;71.71
39487;BME280;25173;50.430;18.926;2024-02-21T03:32:34;98748.63;;;9.27;71.88
39487;BME280;25173;50.430;18.926;2024-02-21T03:35:35;98742.88;;;9.23;72.04
39487;BME280;25173;50.430;18.926;2024-02-21T03:38:36;98740.41;;;9.22;72.11
39487;BME280;25173;50.430;18.926;2024-02-21T03:41:36;98746.91;;;9.21;72.09
39487;BME280;25173;50.430;18.926;2024-02-21T03:44:37;98737.69;;;9.22;72.06
39487;BME280;25173;50.430;18.926;2024-02-21T03:47:38;98749.13;;;9.24;72.24
39487;BME280;25173;50.430;18.926;2024-02-21T03:50:38;98745.34;;;9.25;72.08
39487;BME280;25173;50.430;18.926;2024-02-21T03:53:39;98738.28;;;9.24;72.08
39487;BME280;25173;50.430;18.926;2024-02-21T03:56:40;98743.72;;;9.24;72.12
39487;BME280;25173;50.430;18.926;2024-02-21T03:59:41;98740.47;;;9.27;72.23
39487;BME280;25173;50.430;18.926;2024-02-21T04:02:41;98749.19;;;9.29;72.01
39487;BME280;25173;50.430;18.926;2024-02-21T04:05:42;98747.63;;;9.33;72.25
39487;BME280;25173;50.430;18.926;2024-02-21T04:08:43;98745.28;;;9.42;72.12
39487;BME280;25173;50.430;18.926;2024-02-21T04:11:44;98747.25;;;9.46;71.81
39487;BME280;25173;50.430;18.926;2024-02-21T04:14:44;98749.41;;;9.44;71.83
39487;BME280;25173;50.430;18.926;2024-02-21T04:17:45;98743.97;;;9.44;71.55
39487;BME280;25173;50.430;18.926;2024-02-21T04:20:46;98734.97;;;9.44;71.72
39487;BME280;25173;50.430;18.926;2024-02-21T04:23:47;98747.75;;;9.43;71.54
39487;BME280;25173;50.430;18.926;2024-02-21T04:26:47;98741.00;;;9.46;71.65
39487;BME280;25173;50.430;18.926;2024-02-21T04:29:48;98739.69;;;9.48;71.42
39487;BME280;25173;50.430;18.926;2024-02-21T04:32:49;98736.13;;;9.48;71.32
39487;BME280;25173;50.430;18.926;2024-02-21T04:35:49;98734.78;;;9.50;71.53
39487;BME280;25173;50.430;18.926;2024-02-21T04:38:50;98721.28;;;9.55;71.34
39487;BME280;25173;50.430;18.926;2024-02-21T04:41:51;98716.09;;;9.54;71.18
39487;BME280;25173;50.430;18.926;2024-02-21T04:44:51;98727.22;;;9.52;71.06
39487;BME280;25173;50.430;18.926;2024-02-21T04:47:52;98718.03;;;9.58;71.03
39487;BME280;25173;50.430;18.926;2024-02-21T04:50:53;98719.69;;;9.59;70.95
39487;BME280;25173;50.430;18.926;2024-02-21T04:53:53;98707.41;;;9.57;70.73
39487;BME280;25173;50.430;18.926;2024-02-21T04:56:54;98706.28;;;9.53;71.01
39487;BME280;25173;50.430;18.926;2024-02-21T04:59:55;98703.56;;;9.53;70.96
39487;BME280;25173;50.430;18.926;2024-02-21T05:02:55;98699.19;;;9.52;70.71
39487;BME280;25173;50.430;18.926;2024-02-21T05:05:56;98698.63;;;9.50;70.73
39487;BME280;25173;50.430;18.926;2024-02-21T05:08:57;98700.47;;;9.44;70.37
39487;BME280;25173;50.430;18.926;2024-02-21T05:11:58;98706.69;;;9.40;70.76
39487;BME280;25173;50.430;18.926;2024-02-21T05:15:03;98696.72;;;9.28;70.71
39487;BME280;25173;50.430;18.926;2024-02-21T05:18:03;98687.75;;;9.28;71.05
39487;BME280;25173;50.430;18.926;2024-02-21T05:21:04;98694.84;;;9.29;70.86
39487;BME280;25173;50.430;18.926;2024-02-21T05:24:05;98695.41;;;9.31;70.87
39487;BME280;25173;50.430;18.926;2024-02-21T05:27:06;98703.81;;;9.29;70.72
39487;BME280;25173;50.430;18.926;2024-02-21T05:30:07;98696.97;;;9.27;70.61
39487;BME280;25173;50.430;18.926;2024-02-21T05:33:07;98694.78;;;9.24;70.70
39487;BME280;25173;50.430;18.926;2024-02-21T05:36:08;98696.34;;;9.20;70.73
39487;BME280;25173;50.430;18.926;2024-02-21T05:39:09;98688.78;;;9.22;70.79
39487;BME280;25173;50.430;18.926;2024-02-21T05:42:09;98686.06;;;9.22;70.79
39487;BME280;25173;50.430;18.926;2024-02-21T05:45:10;98691.50;;;9.22;70.75
39487;BME280;25173;50.430;18.926;2024-02-21T05:48:11;98686.38;;;9.25;70.77
39487;BME280;25173;50.430;18.926;2024-02-21T05:51:12;98692.13;;;9.29;70.69
39487;BME280;25173;50.430;18.926;2024-02-21T05:54:13;98687.03;;;9.32;70.82
39487;BME280;25173;50.430;18.926;2024-02-21T05:57:13;98692.75;;;9.36;70.79
39487;BME280;25173;50.430;18.926;2024-02-21T06:00:14;98684.16;;;9.44;70.86
39487;BME280;25173;50.430;18.926;2024-02-21T06:03:15;98694.25;;;9.49;70.58
39487;BME280;25173;50.430;18.926;2024-02-21T06:06:16;98691.09;;;9.57;70.65
39487;BME280;25173;50.430;18.926;2024-02-21T06:09:17;98696.34;;;9.63;70.46
39487;BME280;25173;50.430;18.926;2024-02-21T06:12:18;98696.34;;;9.63;70.14
39487;BME280;25173;50.430;18.926;2024-02-21T06:15:18;98687.69;;;9.66;70.28
39487;BME280;25173;50.430;18.926;2024-02-21T06:18:20;98686.66;;;9.72;70.28
39487;BME280;25173;50.430;18.926;2024-02-21T06:21:21;98695.19;;;9.81;70.63
39487;BME280;25173;50.430;18.926;2024-02-21T06:24:21;98689.84;;;9.91;70.09
39487;BME280;25173;50.430;18.926;2024-02-21T06:27:22;98684.69;;;9.95;69.81
39487;BME280;25173;50.430;18.926;2024-02-21T06:30:23;98686.09;;;9.97;69.57
39487;BME280;25173;50.430;18.926;2024-02-21T06:33:23;98683.06;;;9.94;69.64
39487;BME280;25173;50.430;18.926;2024-02-21T06:36:25;98676.78;;;9.93;69.76
39487;BME280;25173;50.430;18.926;2024-02-21T06:39:25;98681.72;;;9.96;69.70
39487;BME280;25173;50.430;18.926;2024-02-21T06:42:26;98674.97;;;9.99;69.29
39487;BME280;25173;50.430;18.926;2024-02-21T06:45:27;98680.13;;;10.00;69.56
39487;BME280;25173;50.430;18.926;2024-02-21T06:48:27;98684.81;;;10.05;69.57
39487;BME280;25173;50.430;18.926;2024-02-21T06:51:28;98678.03;;;10.07;69.18
39487;BME280;25173;50.430;18.926;2024-02-21T06:54:29;98673.38;;;10.08;69.20
39487;BME280;25173;50.430;18.926;2024-02-21T06:57:30;98674.59;;;10.17;69.31
39487;BME280;25173;50.430;18.926;2024-02-21T07:00:30;98679.31;;;10.27;69.05
39487;BME280;25173;50.430;18.926;2024-02-21T07:03:31;98679.66;;;10.35;68.42
39487;BME280;25173;50.430;18.926;2024-02-21T07:06:33;98679.97;;;10.39;68.77
39487;BME280;25173;50.430;18.926;2024-02-21T07:09:35;98680.31;;;10.47;68.59
39487;BME280;25173;50.430;18.926;2024-02-21T07:12:35;98679.47;;;10.47;68.32
39487;BME280;25173;50.430;18.926;2024-02-21T07:15:37;98676.97;;;10.40;68.15
39487;BME280;25173;50.430;18.926;2024-02-21T07:18:38;98677.53;;;10.42;68.28
39487;BME280;25173;50.430;18.926;2024-02-21T07:21:39;98674.50;;;10.39;68.16
39487;BME280;25173;50.430;18.926;2024-02-21T07:24:41;98670.94;;;10.33;68.34
39487;BME280;25173;50.430;18.926;2024-02-21T07:27:43;98670.94;;;10.33;68.37
39487;BME280;25173;50.430;18.926;2024-02-21T07:30:44;98668.19;;;10.28;68.31
39487;BME280;25173;50.430;18.926;2024-02-21T07:33:45;98667.66;;;10.31;68.42
39487;BME280;25173;50.430;18.926;2024-02-21T07:36:45;98661.38;;;10.31;68.42
39487;BME280;25173;50.430;18.926;2024-02-21T07:39:46;98661.19;;;10.37;68.49
39487;BME280;25173;50.430;18.926;2024-02-21T07:42:47;98656.63;;;10.48;68.39
39487;BME280;25173;50.430;18.926;2024-02-21T07:45:47;98659.38;;;10.53;68.11
39487;BME280;25173;50.430;18.926;2024-02-21T07:48:48;98661.31;;;10.58;67.96
39487;BME280;25173;50.430;18.926;2024-02-21T07:51:49;98652.91;;;10.59;68.07
39487;BME280;25173;50.430;18.926;2024-02-21T07:54:50;98649.06;;;10.60;67.96
39487;BME280;25173;50.430;18.926;2024-02-21T07:57:50;98651.53;;;10.62;68.00
39487;BME280;25173;50.430;18.926;2024-02-21T08:00:51;98642.59;;;10.66;67.88
39487;BME280;25173;50.430;18.926;2024-02-21T08:03:52;98640.16;;;10.70;67.66
39487;BME280;25173;50.430;18.926;2024-02-21T08:06:53;98635.25;;;10.72;67.65
39487;BME280;25173;50.430;18.926;2024-02-21T08:09:56;98641.31;;;10.79;67.96
39487;BME280;25173;50.430;18.926;2024-02-21T08:12:57;98647.91;;;10.88;67.46
39487;BME280;25173;50.430;18.926;2024-02-21T08:15:57;98638.13;;;10.97;67.32
39487;BME280;25173;50.430;18.926;2024-02-21T08:18:58;98640.91;;;11.07;67.04
39487;BME280;25173;50.430;18.926;2024-02-21T08:22:00;98632.22;;;11.10;66.82
39487;BME280;25173;50.430;18.926;2024-02-21T08:25:01;98621.00;;;11.12;66.69
39487;BME280;25173;50.430;18.926;2024-02-21T08:28:01;98626.19;;;11.13;66.69
39487;BME280;25173;50.430;18.926;2024-02-21T08:31:02;98617.75;;;11.15;66.61
39487;BME280;25173;50.430;18.926;2024-02-21T08:34:04;98620.75;;;11.13;66.40
39487;BME280;25173;50.430;18.926;2024-02-21T08:37:05;98615.59;;;11.17;66.47
39487;BME280;25173;50.430;18.926;2024-02-21T08:40:06;98608.56;;;11.26;66.24
39487;BME280;25173;50.430;18.926;2024-02-21T08:43:08;98609.94;;;11.34;65.93
39487;BME280;25173;50.430;18.926;2024-02-21T08:46:09;98606.13;;;11.45;66.00
39487;BME280;25173;50.430;18.926;2024-02-21T08:49:10;98598.53;;;11.57;65.88
39487;BME280;25173;50.430;18.926;2024-02-21T08:52:10;98599.63;;;11.71;65.73
39487;BME280;25173;50.430;18.926;2024-02-21T08:55:11;98590.69;;;11.81;65.36
39487;BME280;25173;50.430;18.926;2024-02-21T08:58:12;98587.97;;;11.76;64.97
39487;BME280;25173;50.430;18.926;2024-02-21T09:01:12;98585.72;;;11.73;65.12
39487;BME280;25173;50.430;18.926;2024-02-21T09:04:13;98593.38;;;11.71;64.94
39487;BME280;25173;50.430;18.926;2024-02-21T09:07:14;98588.72;;;11.71;64.96
39487;BME280;25173;50.430;18.926;2024-02-21T09:10:14;98583.84;;;11.78;64.92
39487;BME280;25173;50.430;18.926;2024-02-21T09:13:15;98582.22;;;11.77;64.68
39487;BME280;25173;50.430;18.926;2024-02-21T09:16:15;98578.97;;;11.85;65.12
39487;BME280;25173;50.430;18.926;2024-02-21T09:19:16;98590.97;;;12.04;65.19
39487;BME280;25173;50.430;18.926;2024-02-21T09:22:18;98601.09;;;12.29;64.52
39487;BME280;25173;50.430;18.926;2024-02-21T09:25:19;98590.66;;;12.47;63.98
39487;BME280;25173;50.430;18.926;2024-02-21T09:28:19;98598.03;;;12.56;63.49
39487;BME280;25173;50.430;18.926;2024-02-21T09:31:20;98593.94;;;12.59;63.38
39487;BME280;25173;50.430;18.926;2024-02-21T09:34:20;98594.72;;;12.69;63.39
39487;BME280;25173;50.430;18.926;2024-02-21T09:37:22;98598.78;;;12.77;63.08
39487;BME280;25173;50.430;18.926;2024-02-21T09:40:22;98599.03;;;12.91;62.36
39487;BME280;25173;50.430;18.926;2024-02-21T09:43:23;98600.66;;;12.97;62.51
39487;BME280;25173;50.430;18.926;2024-02-21T09:49:39;98596.69;;;13.38;61.95
39487;BME280;25173;50.430;18.926;2024-02-21T09:52:41;98593.28;;;13.56;61.17
39487;BME280;25173;50.430;18.926;2024-02-21T09:55:44;98598.69;;;13.67;60.90
39487;BME280;25173;50.430;18.926;2024-02-21T09:58:47;98592.66;;;13.70;60.66
39487;BME280;25173;50.430;18.926;2024-02-21T10:01:47;98598.88;;;13.80;60.44
39487;BME280;25173;50.430;18.926;2024-02-21T10:04:48;98593.44;;;13.75;60.03
39487;BME280;25173;50.430;18.926;2024-02-21T10:07:49;98597.00;;;13.76;60.15
39487;BME280;25173;50.430;18.926;2024-02-21T10:10:50;98589.88;;;13.75;59.98
39487;BME280;25173;50.430;18.926;2024-02-21T10:14:06;98581.69;;;13.75;59.13
39487;BME280;25173;50.430;18.926;2024-02-21T10:17:08;98584.41;;;13.75;59.56
39487;BME280;25173;50.430;18.926;2024-02-21T10:20:10;98592.34;;;13.76;59.32
39487;BME280;25173;50.430;18.926;2024-02-21T10:23:11;98587.44;;;13.73;59.29
39487;BME280;25173;50.430;18.926;2024-02-21T10:26:12;98584.34;;;13.85;59.56
39487;BME280;25173;50.430;18.926;2024-02-21T10:29:13;98582.88;;;13.97;59.25
39487;BME280;25173;50.430;18.926;2024-02-21T10:32:14;98578.13;;;14.08;58.85
39487;BME280;25173;50.430;18.926;2024-02-21T10:35:14;98577.56;;;14.11;58.71
39487;BME280;25173;50.430;18.926;2024-02-21T10:38:25;98569.84;;;14.18;58.55
39487;BME280;25173;50.430;18.926;2024-02-21T10:41:26;98567.56;;;14.25;58.26
39487;BME280;25173;50.430;18.926;2024-02-21T10:44:28;98567.84;;;14.24;57.46
39487;BME280;25173;50.430;18.926;2024-02-21T10:47:32;98563.31;;;14.14;57.52
39487;BME280;25173;50.430;18.926;2024-02-21T10:50:36;98559.97;;;14.17;57.33
39487;BME280;25173;50.430;18.926;2024-02-21T10:56:49;98554.00;;;14.10;57.53
39487;BME280;25173;50.430;18.926;2024-02-21T10:59:51;98558.94;;;14.13;57.96
39487;BME280;25173;50.430;18.926;2024-02-21T11:02:51;98548.16;;;14.22;57.64
39487;BME280;25173;50.430;18.926;2024-02-21T11:05:52;98547.44;;;14.11;56.95
39487;BME280;25173;50.430;18.926;2024-02-21T11:09:03;98542.63;;;13.98;56.60
39487;BME280;25173;50.430;18.926;2024-02-21T11:12:05;98530.97;;;13.82;57.41
39487;BME280;25173;50.430;18.926;2024-02-21T11:15:07;98525.00;;;13.75;57.51
39487;BME280;25173;50.430;18.926;2024-02-21T11:18:07;98517.63;;;13.76;57.68
39487;BME280;25173;50.430;18.926;2024-02-21T11:21:08;98518.44;;;13.76;57.46
39487;BME280;25173;50.430;18.926;2024-02-21T11:24:09;98523.88;;;13.81;57.30
39487;BME280;25173;50.430;18.926;2024-02-21T11:27:14;98520.34;;;13.76;57.22
39487;BME280;25173;50.430;18.926;2024-02-21T11:30:15;98519.28;;;13.72;55.95
39487;BME280;25173;50.430;18.926;2024-02-21T11:33:18;98515.78;;;13.66;57.71
39487;BME280;25173;50.430;18.926;2024-02-21T11:36:28;98512.19;;;13.71;57.92
39487;BME280;25173;50.430;18.926;2024-02-21T11:39:28;98498.78;;;13.69;58.23
39487;BME280;25173;50.430;18.926;2024-02-21T11:42:30;98500.16;;;13.67;58.17
39487;BME280;25173;50.430;18.926;2024-02-21T11:45:30;98495.78;;;13.66;58.03
39487;BME280;25173;50.430;18.926;2024-02-21T11:48:32;98506.00;;;13.55;58.11
39487;BME280;25173;50.430;18.926;2024-02-21T11:51:34;98496.59;;;13.27;58.05
39487;BME280;25173;50.430;18.926;2024-02-21T11:54:34;98494.75;;;13.12;59.10
39487;BME280;25173;50.430;18.926;2024-02-21T11:57:37;98489.94;;;12.94;59.32
39487;BME280;25173;50.430;18.926;2024-02-21T12:00:41;98481.28;;;12.77;60.03
39487;BME280;25173;50.430;18.926;2024-02-21T12:03:42;98492.53;;;12.65;60.26
39487;BME280;25173;50.430;18.926;2024-02-21T12:06:53;98489.31;;;12.48;60.53
39487;BME280;25173;50.430;18.926;2024-02-21T12:09:54;98495.63;;;12.38;61.63
39487;BME280;25173;50.430;18.926;2024-02-21T12:13:08;98498.38;;;12.33;61.87
39487;BME280;25173;50.430;18.926;2024-02-21T12:16:09;98491.25;;;12.32;62.46
39487;BME280;25173;50.430;18.926;2024-02-21T12:19:10;98487.19;;;12.30;62.22
39487;BME280;25173;50.430;18.926;2024-02-21T12:22:17;98487.47;;;12.23;62.80
39487;BME280;25173;50.430;18.926;2024-02-21T12:25:20;98477.13;;;12.10;63.53
39487;BME280;25173;50.430;18.926;2024-02-21T12:28:26;98482.63;;;11.85;63.67
39487;BME280;25173;50.430;18.926;2024-02-21T12:31:27;98491.63;;;11.70;64.06
39487;BME280;25173;50.430;18.926;2024-02-21T12:34:28;98485.59;;;11.58;64.72
39487;BME280;25173;50.430;18.926;2024-02-21T12:37:32;98474.13;;;11.51;64.95
39487;BME280;25173;50.430;18.926;2024-02-21T12:40:33;98467.59;;;11.47;65.50
39487;BME280;25173;50.430;18.926;2024-02-21T12:43:34;98480.97;;;11.48;65.17
39487;BME280;25173;50.430;18.926;2024-02-21T12:46:35;98469.78;;;11.55;65.62
39487;BME280;25173;50.430;18.926;2024-02-21T12:49:36;98457.78;;;11.61;65.95
39487;BME280;25173;50.430;18.926;2024-02-21T12:52:36;98454.75;;;11.73;66.19
39487;BME280;25173;50.430;18.926;2024-02-21T12:55:37;98447.41;;;11.88;65.84
39487;BME280;25173;50.430;18.926;2024-02-21T12:58:39;98444.94;;;12.07;65.72
39487;BME280;25173;50.430;18.926;2024-02-21T13:01:39;98444.56;;;12.34;65.44
39487;BME280;25173;50.430;18.926;2024-02-21T13:04:40;98442.63;;;12.44;64.75
39487;BME280;25173;50.430;18.926;2024-02-21T13:07:42;98424.28;;;12.45;64.96
39487;BME280;25173;50.430;18.926;2024-02-21T13:10:43;98420.78;;;12.44;64.68
39487;BME280;25173;50.430;18.926;2024-02-21T13:13:44;98424.28;;;12.45;64.52
39487;BME280;25173;50.430;18.926;2024-02-21T13:16:45;98423.22;;;12.41;64.28
39487;BME280;25173;50.430;18.926;2024-02-21T13:19:45;98416.41;;;12.38;64.26
39487;BME280;25173;50.430;18.926;2024-02-21T13:22:46;98413.91;;;12.52;64.43
39487;BME280;25173;50.430;18.926;2024-02-21T13:25:48;98406.72;;;12.61;63.96
39487;BME280;25173;50.430;18.926;2024-02-21T13:28:49;98411.03;;;12.77;63.96
39487;BME280;25173;50.430;18.926;2024-02-21T13:31:50;98403.00;;;12.96;63.79
39487;BME280;25173;50.430;18.926;2024-02-21T13:34:51;98406.72;;;13.10;63.50
39487;BME280;25173;50.430;18.926;2024-02-21T13:37:52;98407.47;;;13.26;62.95
39487;BME280;25173;50.430;18.926;2024-02-21T13:40:53;98404.97;;;13.30;62.41
39487;BME280;25173;50.430;18.926;2024-02-21T13:43:54;98406.31;;;13.32;62.19
39487;BME280;25173;50.430;18.926;2024-02-21T13:46:55;98397.56;;;13.30;62.31
39487;BME280;25173;50.430;18.926;2024-02-21T13:49:55;98390.50;;;13.24;61.99
39487;BME280;25173;50.430;18.926;2024-02-21T13:52:56;98382.38;;;13.14;62.36
39487;BME280;25173;50.430;18.926;2024-02-21T13:55:57;98384.03;;;13.10;62.71
39487;BME280;25173;50.430;18.926;2024-02-21T13:58:58;98373.69;;;13.02;62.81
39487;BME280;25173;50.430;18.926;2024-02-21T14:02:00;98373.13;;;13.05;62.86
39487;BME280;25173;50.430;18.926;2024-02-21T14:05:01;98360.03;;;13.02;62.74
39487;BME280;25173;50.430;18.926;2024-02-21T14:08:06;98360.88;;;12.97;63.11
39487;BME280;25173;50.430;18.926;2024-02-21T14:11:07;98353.53;;;12.93;63.22
39487;BME280;25173;50.430;18.926;2024-02-21T14:14:07;98340.41;;;12.90;63.18
39487;BME280;25173;50.430;18.926;2024-02-21T14:17:08;98345.38;;;12.88;63.43
39487;BME280;25173;50.430;18.926;2024-02-21T14:20:09;98338.28;;;12.87;63.35
39487;BME280;25173;50.430;18.926;2024-02-21T14:23:10;98336.91;;;12.89;63.53
39487;BME280;25173;50.430;18.926;2024-02-21T14:26:10;98329.47;;;12.90;63.47
39487;BME280;25173;50.430;18.926;2024-02-21T14:29:12;98320.06;;;13.06;63.94
39487;BME280;25173;50.430;18.926;2024-02-21T14:32:14;98325.16;;;13.23;63.41
39487;BME280;25173;50.430;18.926;2024-02-21T14:35:15;98314.94;;;13.33;63.13
39487;BME280;25173;50.430;18.926;2024-02-21T14:38:16;98316.47;;;13.44;62.59
39487;BME280;25173;50.430;18.926;2024-02-21T14:41:18;98312.63;;;13.45;62.16
39487;BME280;25173;50.430;18.926;2024-02-21T14:44:19;98315.91;;;13.47;61.99
39487;BME280;25173;50.430;18.926;2024-02-21T14:47:19;98313.19;;;13.42;61.86
39487;BME280;25173;50.430;18.926;2024-02-21T14:50:20;98300.72;;;13.31;61.55
39487;BME280;25173;50.430;18.926;2024-02-21T14:53:21;98311.75;;;13.21;61.97
39487;BME280;25173;50.430;18.926;2024-02-21T14:56:21;98314.25;;;13.12;61.66
39487;BME280;25173;50.430;18.926;2024-02-21T14:59:23;98307.81;;;13.03;61.63
39487;BME280;25173;50.430;18.926;2024-02-21T15:02:24;98308.75;;;12.89;61.44
39487;BME280;25173;50.430;18.926;2024-02-21T15:05:25;98312.06;;;12.80;61.44
39487;BME280;25173;50.430;18.926;2024-02-21T15:08:26;98301.47;;;12.74;61.28
39487;BME280;25173;50.430;18.926;2024-02-21T15:11:27;98313.34;;;12.54;61.42
39487;BME280;25173;50.430;18.926;2024-02-21T15:14:28;98301.44;;;12.35;61.69
39487;BME280;25173;50.430;18.926;2024-02-21T15:17:29;98306.91;;;12.35;61.92
39487;BME280;25173;50.430;18.926;2024-02-21T15:20:29;98312.41;;;12.30;61.82
39487;BME280;25173;50.430;18.926;2024-02-21T15:23:30;98308.56;;;12.31;61.73
39487;BME280;25173;50.430;18.926;2024-02-21T15:26:31;98302.03;;;12.27;61.72
39487;BME280;25173;50.430;18.926;2024-02-21T15:29:32;98294.69;;;12.22;61.80
39487;BME280;25173;50.430;18.926;2024-02-21T15:32:32;98289.53;;;12.16;61.80
39487;BME280;25173;50.430;18.926;2024-02-21T15:35:33;98278.06;;;12.19;61.93
39487;BME280;25173;50.430;18.926;2024-02-21T15:38:34;98274.47;;;12.23;61.88
39487;BME280;25173;50.430;18.926;2024-02-21T15:41:34;98264.91;;;12.26;61.66
39487;BME280;25173;50.430;18.926;2024-02-21T15:44:36;98274.47;;;12.23;61.50
39487;BME280;25173;50.430;18.926;2024-02-21T15:47:36;98258.97;;;12.14;61.43
39487;BME280;25173;50.430;18.926;2024-02-21T15:50:37;98258.16;;;12.08;61.64
39487;BME280;25173;50.430;18.926;2024-02-21T15:53:37;98259.56;;;12.05;61.60
39487;BME280;25173;50.430;18.926;2024-02-21T15:56:38;98251.09;;;12.02;61.83
39487;BME280;25173;50.430;18.926;2024-02-21T15:59:39;98247.63;;;11.91;61.76